sensor_id;sensor_type;location;lat;lon;timestamp;temperature;humidity
5834;DHT22;2943;48.012;10.968;2022-08-21T00:02:12;16.20;99.90
5834;DHT22;2943;48.012;10.968;2022-08-21T00:04:40;16.20;99.90
5834;DHT22;2943;48.012;10.968;2022-08-21T00:07:07;16.20;99.90
5834;DHT22;2943;48.012;10.968;2022-08-21T00:09:35;16.20;99.90
5834;DHT22;2943;48.012;10.968;2022-08-21T00:12:04;16.20;99.90
5834;DHT22;2943;48.012;10.968;2022-08-21T00:14:32;16.20;99.90
5834;DHT22;2943;48.012;10.968;2022-08-21T00:17:00;16.20;99.90
5834;DHT22;2943;48.012;10.968;2022-08-21T00:19:29;16.20;99.90
5834;DHT22;2943;48.012;10.968;2022-08-21T00:21:57;16.20;99.90
5834;DHT22;2943;48.012;10.968;2022-08-21T00:24:25;16.20;99.90
5834;DHT22;2943;48.012;10.968;2022-08-21T00:26:53;16.10;99.90
5834;DHT22;2943;48.012;10.968;2022-08-21T00:29:20;16.10;99.90
5834;DHT22;2943;48.012;10.968;2022-08-21T00:31:48;16.00;99.90
5834;DHT22;2943;48.012;10.968;2022-08-21T00:34:15;16.00;99.90
5834;DHT22;2943;48.012;10.968;2022-08-21T00:36:45;16.00;99.90
5834;DHT22;2943;48.012;10.968;2022-08-21T00:39:12;16.00;99.90
5834;DHT22;2943;48.012;10.968;2022-08-21T00:41:41;15.90;99.90
5834;DHT22;2943;48.012;10.968;2022-08-21T00:44:11;15.90;99.90
5834;DHT22;2943;48.012;10.968;2022-08-21T00:46:39;15.90;99.90
5834;DHT22;2943;48.012;10.968;2022-08-21T00:49:09;15.90;99.90
5834;DHT22;2943;48.012;10.968;2022-08-21T00:51:40;15.90;99.90
5834;DHT22;2943;48.012;10.968;2022-08-21T00:54:11;15.80;99.90
5834;DHT22;2943;48.012;10.968;2022-08-21T00:56:40;15.90;99.90
5834;DHT22;2943;48.012;10.968;2022-08-21T00:59:07;15.80;99.90
5834;DHT22;2943;48.012;10.968;2022-08-21T01:01:35;15.80;99.90
5834;DHT22;2943;48.012;10.968;2022-08-21T01:04:03;15.80;99.90
5834;DHT22;2943;48.012;10.968;2022-08-21T01:06:30;15.80;99.90
5834;DHT22;2943;48.012;10.968;2022-08-21T01:08:58;15.80;99.90
5834;DHT22;2943;48.012;10.968;2022-08-21T01:11:27;15.80;99.90
5834;DHT22;2943;48.012;10.968;2022-08-21T01:13:54;15.80;99.90
5834;DHT22;2943;48.012;10.968;2022-08-21T01:16:22;15.70;99.90
5834;DHT22;2943;48.012;10.968;2022-08-21T01:18:50;15.70;99.90
5834;DHT22;2943;48.012;10.968;2022-08-21T01:21:20;15.70;99.90
5834;DHT22;2943;48.012;10.968;2022-08-21T01:23:50;15.70;99.90
5834;DHT22;2943;48.012;10.968;2022-08-21T01:26:22;15.60;99.90
5834;DHT22;2943;48.012;10.968;2022-08-21T01:28:54;15.60;99.90
5834;DHT22;2943;48.012;10.968;2022-08-21T01:31:24;15.60;99.90
5834;DHT22;2943;48.012;10.968;2022-08-21T01:33:53;15.60;99.90
5834;DHT22;2943;48.012;10.968;2022-08-21T01:36:24;15.50;99.90
5834;DHT22;2943;48.012;10.968;2022-08-21T01:38:52;15.50;99.90
5834;DHT22;2943;48.012;10.968;2022-08-21T01:41:19;15.50;99.90
5834;DHT22;2943;48.012;10.968;2022-08-21T01:43:47;15.50;99.90
5834;DHT22;2943;48.012;10.968;2022-08-21T01:46:15;15.50;99.90
5834;DHT22;2943;48.012;10.968;2022-08-21T01:48:43;15.50;99.90
5834;DHT22;2943;48.012;10.968;2022-08-21T01:51:11;15.50;99.90
5834;DHT22;2943;48.012;10.968;2022-08-21T01:53:40;15.50;99.90
5834;DHT22;2943;48.012;10.968;2022-08-21T01:56:10;15.50;99.90
5834;DHT22;2943;48.012;10.968;2022-08-21T01:58:39;15.40;99.90
5834;DHT22;2943;48.012;10.968;2022-08-21T02:01:07;15.40;99.90
5834;DHT22;2943;48.012;10.968;2022-08-21T02:03:35;15.40;99.90
5834;DHT22;2943;48.012;10.968;2022-08-21T02:06:03;15.40;99.90
5834;DHT22;2943;48.012;10.968;2022-08-21T02:08:31;15.30;99.90
5834;DHT22;2943;48.012;10.968;2022-08-21T02:11:00;15.30;99.90
5834;DHT22;2943;48.012;10.968;2022-08-21T02:13:27;15.30;99.90
5834;DHT22;2943;48.012;10.968;2022-08-21T02:15:54;15.30;99.90
5834;DHT22;2943;48.012;10.968;2022-08-21T02:18:22;15.30;99.90
5834;DHT22;2943;48.012;10.968;2022-08-21T02:20:49;15.30;99.90
5834;DHT22;2943;48.012;10.968;2022-08-21T02:23:17;15.30;99.90
5834;DHT22;2943;48.012;10.968;2022-08-21T02:25:44;15.30;99.90
5834;DHT22;2943;48.012;10.968;2022-08-21T02:28:14;15.30;99.90
5834;DHT22;2943;48.012;10.968;2022-08-21T02:30:45;15.30;99.90
5834;DHT22;2943;48.012;10.968;2022-08-21T02:33:13;15.30;99.90
5834;DHT22;2943;48.012;10.968;2022-08-21T02:35:41;15.30;99.90
5834;DHT22;2943;48.012;10.968;2022-08-21T02:38:11;15.20;99.90
5834;DHT22;2943;48.012;10.968;2022-08-21T02:40:40;15.20;99.90
5834;DHT22;2943;48.012;10.968;2022-08-21T02:43:08;15.20;99.90
5834;DHT22;2943;48.012;10.968;2022-08-21T02:45:38;15.20;99.90
5834;DHT22;2943;48.012;10.968;2022-08-21T02:48:08;15.20;99.90
5834;DHT22;2943;48.012;10.968;2022-08-21T02:50:38;15.20;99.90
5834;DHT22;2943;48.012;10.968;2022-08-21T02:53:07;15.20;99.90
5834;DHT22;2943;48.012;10.968;2022-08-21T02:55:36;15.20;99.90
5834;DHT22;2943;48.012;10.968;2022-08-21T02:58:04;15.20;99.90
5834;DHT22;2943;48.012;10.968;2022-08-21T03:00:34;15.20;99.90
5834;DHT22;2943;48.012;10.968;2022-08-21T03:03:03;15.20;99.90
5834;DHT22;2943;48.012;10.968;2022-08-21T03:05:32;15.20;99.90
5834;DHT22;2943;48.012;10.968;2022-08-21T03:08:01;15.20;99.90
5834;DHT22;2943;48.012;10.968;2022-08-21T03:10:29;15.20;99.90
5834;DHT22;2943;48.012;10.968;2022-08-21T03:12:57;15.20;99.90
5834;DHT22;2943;48.012;10.968;2022-08-21T03:15:26;15.20;99.90
5834;DHT22;2943;48.012;10.968;2022-08-21T03:17:54;15.20;99.90
5834;DHT22;2943;48.012;10.968;2022-08-21T03:20:25;15.20;99.90
5834;DHT22;2943;48.012;10.968;2022-08-21T03:22:54;15.20;99.90
5834;DHT22;2943;48.012;10.968;2022-08-21T03:25:23;15.20;99.90
5834;DHT22;2943;48.012;10.968;2022-08-21T03:27:50;15.20;99.90
5834;DHT22;2943;48.012;10.968;2022-08-21T03:30:19;15.20;99.90
5834;DHT22;2943;48.012;10.968;2022-08-21T03:32:47;15.10;99.90
5834;DHT22;2943;48.012;10.968;2022-08-21T03:35:15;15.10;99.90
5834;DHT22;2943;48.012;10.968;2022-08-21T03:37:44;15.10;99.90
5834;DHT22;2943;48.012;10.968;2022-08-21T03:40:13;15.10;99.90
5834;DHT22;2943;48.012;10.968;2022-08-21T03:42:40;15.10;99.90
5834;DHT22;2943;48.012;10.968;2022-08-21T03:45:09;15.10;99.90
5834;DHT22;2943;48.012;10.968;2022-08-21T03:47:37;15.10;99.90
5834;DHT22;2943;48.012;10.968;2022-08-21T03:50:05;15.10;99.90
5834;DHT22;2943;48.012;10.968;2022-08-21T03:52:33;15.10;99.90
5834;DHT22;2943;48.012;10.968;2022-08-21T03:55:02;15.10;99.90
5834;DHT22;2943;48.012;10.968;2022-08-21T03:57:29;15.10;99.90
5834;DHT22;2943;48.012;10.968;2022-08-21T03:59:57;15.10;99.90
5834;DHT22;2943;48.012;10.968;2022-08-21T04:02:24;15.10;99.90
5834;DHT22;2943;48.012;10.968;2022-08-21T04:04:51;15.10;99.90
5834;DHT22;2943;48.012;10.968;2022-08-21T04:07:19;15.10;99.90
5834;DHT22;2943;48.012;10.968;2022-08-21T04:09:46;15.10;99.90
5834;DHT22;2943;48.012;10.968;2022-08-21T04:12:14;15.00;99.90
5834;DHT22;2943;48.012;10.968;2022-08-21T04:14:42;15.10;99.90
5834;DHT22;2943;48.012;10.968;2022-08-21T04:17:09;15.00;99.90
5834;DHT22;2943;48.012;10.968;2022-08-21T04:19:36;15.10;99.90
5834;DHT22;2943;48.012;10.968;2022-08-21T04:22:04;15.00;99.90
5834;DHT22;2943;48.012;10.968;2022-08-21T04:24:32;15.00;99.90
5834;DHT22;2943;48.012;10.968;2022-08-21T04:26:59;15.00;99.90
5834;DHT22;2943;48.012;10.968;2022-08-21T04:29:28;15.00;99.90
5834;DHT22;2943;48.012;10.968;2022-08-21T04:31:55;15.00;99.90
5834;DHT22;2943;48.012;10.968;2022-08-21T04:34:23;14.90;99.90
5834;DHT22;2943;48.012;10.968;2022-08-21T04:36:50;15.00;99.90
5834;DHT22;2943;48.012;10.968;2022-08-21T04:39:17;14.90;99.90
5834;DHT22;2943;48.012;10.968;2022-08-21T04:41:45;14.90;99.90
5834;DHT22;2943;48.012;10.968;2022-08-21T04:44:12;14.90;99.90
5834;DHT22;2943;48.012;10.968;2022-08-21T04:46:42;14.90;99.90
5834;DHT22;2943;48.012;10.968;2022-08-21T04:49:09;14.90;99.90
5834;DHT22;2943;48.012;10.968;2022-08-21T04:51:37;14.90;99.90
5834;DHT22;2943;48.012;10.968;2022-08-21T04:54:09;14.90;99.90
5834;DHT22;2943;48.012;10.968;2022-08-21T04:56:41;14.90;99.90
5834;DHT22;2943;48.012;10.968;2022-08-21T04:59:14;14.90;99.90
5834;DHT22;2943;48.012;10.968;2022-08-21T05:01:44;14.90;99.90
5834;DHT22;2943;48.012;10.968;2022-08-21T05:04:17;15.00;99.90
5834;DHT22;2943;48.012;10.968;2022-08-21T05:06:46;15.00;99.90
5834;DHT22;2943;48.012;10.968;2022-08-21T05:09:17;15.00;99.90
5834;DHT22;2943;48.012;10.968;2022-08-21T05:11:45;14.90;99.90
5834;DHT22;2943;48.012;10.968;2022-08-21T05:14:13;14.90;99.90
5834;DHT22;2943;48.012;10.968;2022-08-21T05:16:40;15.00;99.90
5834;DHT22;2943;48.012;10.968;2022-08-21T05:19:11;15.00;99.90
5834;DHT22;2943;48.012;10.968;2022-08-21T05:21:41;15.00;99.90
5834;DHT22;2943;48.012;10.968;2022-08-21T05:24:09;15.00;99.90
5834;DHT22;2943;48.012;10.968;2022-08-21T05:26:37;15.00;99.90
5834;DHT22;2943;48.012;10.968;2022-08-21T05:29:04;15.00;99.90
5834;DHT22;2943;48.012;10.968;2022-08-21T05:31:32;15.10;99.90
5834;DHT22;2943;48.012;10.968;2022-08-21T05:34:00;15.10;99.90
5834;DHT22;2943;48.012;10.968;2022-08-21T05:36:28;15.20;99.90
5834;DHT22;2943;48.012;10.968;2022-08-21T05:38:56;15.20;99.90
5834;DHT22;2943;48.012;10.968;2022-08-21T05:41:23;15.20;99.90
5834;DHT22;2943;48.012;10.968;2022-08-21T05:43:50;15.20;99.90
5834;DHT22;2943;48.012;10.968;2022-08-21T05:46:18;15.20;99.90
5834;DHT22;2943;48.012;10.968;2022-08-21T05:48:45;15.20;99.90
5834;DHT22;2943;48.012;10.968;2022-08-21T05:51:14;15.20;99.90
5834;DHT22;2943;48.012;10.968;2022-08-21T05:53:44;15.20;99.90
5834;DHT22;2943;48.012;10.968;2022-08-21T05:56:12;15.30;99.90
5834;DHT22;2943;48.012;10.968;2022-08-21T05:58:40;15.30;99.90
5834;DHT22;2943;48.012;10.968;2022-08-21T06:01:07;15.30;99.90
5834;DHT22;2943;48.012;10.968;2022-08-21T06:03:37;15.40;99.90
5834;DHT22;2943;48.012;10.968;2022-08-21T06:06:06;15.40;99.90
5834;DHT22;2943;48.012;10.968;2022-08-21T06:08:33;15.40;99.90
5834;DHT22;2943;48.012;10.968;2022-08-21T06:11:04;15.40;99.90
5834;DHT22;2943;48.012;10.968;2022-08-21T06:13:33;15.50;99.90
5834;DHT22;2943;48.012;10.968;2022-08-21T06:16:03;15.50;99.90
5834;DHT22;2943;48.012;10.968;2022-08-21T06:18:30;15.60;99.90
5834;DHT22;2943;48.012;10.968;2022-08-21T06:20:58;15.60;99.90
5834;DHT22;2943;48.012;10.968;2022-08-21T06:23:25;15.70;99.90
5834;DHT22;2943;48.012;10.968;2022-08-21T06:25:53;15.70;99.90
5834;DHT22;2943;48.012;10.968;2022-08-21T06:28:21;15.80;99.90
5834;DHT22;2943;48.012;10.968;2022-08-21T06:30:49;15.80;99.90
5834;DHT22;2943;48.012;10.968;2022-08-21T06:33:17;15.90;99.90
5834;DHT22;2943;48.012;10.968;2022-08-21T06:35:44;15.90;99.90
5834;DHT22;2943;48.012;10.968;2022-08-21T06:38:11;16.00;99.90
5834;DHT22;2943;48.012;10.968;2022-08-21T06:40:39;16.10;99.90
5834;DHT22;2943;48.012;10.968;2022-08-21T06:43:08;16.10;99.90
5834;DHT22;2943;48.012;10.968;2022-08-21T06:45:38;16.20;99.90
5834;DHT22;2943;48.012;10.968;2022-08-21T06:48:05;16.20;99.90
5834;DHT22;2943;48.012;10.968;2022-08-21T06:50:34;16.30;99.90
5834;DHT22;2943;48.012;10.968;2022-08-21T06:53:03;16.30;99.90
5834;DHT22;2943;48.012;10.968;2022-08-21T06:55:30;16.40;99.90
5834;DHT22;2943;48.012;10.968;2022-08-21T06:57:58;16.50;99.90
5834;DHT22;2943;48.012;10.968;2022-08-21T07:00:26;16.50;99.90
5834;DHT22;2943;48.012;10.968;2022-08-21T07:02:55;16.60;99.90
5834;DHT22;2943;48.012;10.968;2022-08-21T07:05:25;16.70;99.90
5834;DHT22;2943;48.012;10.968;2022-08-21T07:07:52;16.80;99.90
5834;DHT22;2943;48.012;10.968;2022-08-21T07:10:20;16.80;99.90
5834;DHT22;2943;48.012;10.968;2022-08-21T07:12:47;16.90;99.90
5834;DHT22;2943;48.012;10.968;2022-08-21T07:15:15;16.90;99.90
5834;DHT22;2943;48.012;10.968;2022-08-21T07:17:42;17.00;99.90
5834;DHT22;2943;48.012;10.968;2022-08-21T07:20:11;17.00;99.90
5834;DHT22;2943;48.012;10.968;2022-08-21T07:22:39;17.10;99.90
5834;DHT22;2943;48.012;10.968;2022-08-21T07:25:08;17.20;99.90
5834;DHT22;2943;48.012;10.968;2022-08-21T07:27:35;17.20;99.90
5834;DHT22;2943;48.012;10.968;2022-08-21T07:30:03;17.30;99.90
5834;DHT22;2943;48.012;10.968;2022-08-21T07:32:31;17.30;99.90
5834;DHT22;2943;48.012;10.968;2022-08-21T07:34:58;17.40;99.90
5834;DHT22;2943;48.012;10.968;2022-08-21T07:37:27;17.50;99.90
5834;DHT22;2943;48.012;10.968;2022-08-21T07:39:53;17.60;99.90
5834;DHT22;2943;48.012;10.968;2022-08-21T07:42:20;17.60;99.90
5834;DHT22;2943;48.012;10.968;2022-08-21T07:44:47;17.70;99.90
5834;DHT22;2943;48.012;10.968;2022-08-21T07:47:14;17.80;99.90
5834;DHT22;2943;48.012;10.968;2022-08-21T07:49:41;17.90;99.90
5834;DHT22;2943;48.012;10.968;2022-08-21T07:52:07;17.90;99.90
5834;DHT22;2943;48.012;10.968;2022-08-21T07:54:35;18.00;99.90
5834;DHT22;2943;48.012;10.968;2022-08-21T07:57:03;18.10;99.90
5834;DHT22;2943;48.012;10.968;2022-08-21T07:59:29;18.10;99.90
5834;DHT22;2943;48.012;10.968;2022-08-21T08:01:56;18.20;99.90
5834;DHT22;2943;48.012;10.968;2022-08-21T08:04:23;18.30;99.90
5834;DHT22;2943;48.012;10.968;2022-08-21T08:06:50;18.40;99.90
5834;DHT22;2943;48.012;10.968;2022-08-21T08:09:17;18.50;99.90
5834;DHT22;2943;48.012;10.968;2022-08-21T08:11:46;18.50;99.90
5834;DHT22;2943;48.012;10.968;2022-08-21T08:14:13;18.60;99.90
5834;DHT22;2943;48.012;10.968;2022-08-21T08:16:41;18.60;99.90
5834;DHT22;2943;48.012;10.968;2022-08-21T08:19:07;18.70;99.90
5834;DHT22;2943;48.012;10.968;2022-08-21T08:21:34;18.70;99.90
5834;DHT22;2943;48.012;10.968;2022-08-21T08:24:03;18.80;99.90
5834;DHT22;2943;48.012;10.968;2022-08-21T08:26:30;18.90;99.90
5834;DHT22;2943;48.012;10.968;2022-08-21T08:28:58;19.00;99.90
5834;DHT22;2943;48.012;10.968;2022-08-21T08:31:25;19.00;99.90
5834;DHT22;2943;48.012;10.968;2022-08-21T08:33:53;19.10;99.90
5834;DHT22;2943;48.012;10.968;2022-08-21T08:36:19;19.10;99.90
5834;DHT22;2943;48.012;10.968;2022-08-21T08:38:47;19.20;99.90
5834;DHT22;2943;48.012;10.968;2022-08-21T08:41:15;19.30;99.90
5834;DHT22;2943;48.012;10.968;2022-08-21T08:43:48;19.30;99.90
5834;DHT22;2943;48.012;10.968;2022-08-21T08:46:19;19.40;99.90
5834;DHT22;2943;48.012;10.968;2022-08-21T08:48:51;19.40;99.90
5834;DHT22;2943;48.012;10.968;2022-08-21T08:51:25;19.50;99.90
5834;DHT22;2943;48.012;10.968;2022-08-21T08:53:57;19.50;99.90
5834;DHT22;2943;48.012;10.968;2022-08-21T08:56:29;19.60;99.90
5834;DHT22;2943;48.012;10.968;2022-08-21T08:59:00;19.70;99.90
5834;DHT22;2943;48.012;10.968;2022-08-21T09:01:29;19.70;99.90
5834;DHT22;2943;48.012;10.968;2022-08-21T09:03:56;19.80;99.90
5834;DHT22;2943;48.012;10.968;2022-08-21T09:06:39;19.90;99.90
5834;DHT22;2943;48.012;10.968;2022-08-21T09:09:25;20.00;99.90
5834;DHT22;2943;48.012;10.968;2022-08-21T09:12:02;20.10;99.90
5834;DHT22;2943;48.012;10.968;2022-08-21T09:17:36;20.20;99.90
5834;DHT22;2943;48.012;10.968;2022-08-21T09:20:15;20.30;99.90
5834;DHT22;2943;48.012;10.968;2022-08-21T09:22:53;20.30;99.90
5834;DHT22;2943;48.012;10.968;2022-08-21T09:25:26;20.50;99.90
5834;DHT22;2943;48.012;10.968;2022-08-21T09:27:56;20.60;99.90
5834;DHT22;2943;48.012;10.968;2022-08-21T09:30:28;20.70;99.90
5834;DHT22;2943;48.012;10.968;2022-08-21T09:32:59;20.80;99.90
5834;DHT22;2943;48.012;10.968;2022-08-21T09:35:26;20.90;99.90
5834;DHT22;2943;48.012;10.968;2022-08-21T09:37:55;21.00;99.90
5834;DHT22;2943;48.012;10.968;2022-08-21T09:40:29;21.10;99.90
5834;DHT22;2943;48.012;10.968;2022-08-21T09:43:00;21.20;99.90
5834;DHT22;2943;48.012;10.968;2022-08-21T09:45:31;21.30;99.90
5834;DHT22;2943;48.012;10.968;2022-08-21T09:48:11;21.30;99.90
5834;DHT22;2943;48.012;10.968;2022-08-21T09:50:42;21.30;99.90
5834;DHT22;2943;48.012;10.968;2022-08-21T09:53:16;21.20;99.90
5834;DHT22;2943;48.012;10.968;2022-08-21T09:55:52;21.20;99.90
5834;DHT22;2943;48.012;10.968;2022-08-21T09:58:40;21.20;99.90
5834;DHT22;2943;48.012;10.968;2022-08-21T10:01:13;21.30;99.90
5834;DHT22;2943;48.012;10.968;2022-08-21T10:03:42;21.40;99.90
5834;DHT22;2943;48.012;10.968;2022-08-21T10:06:10;21.50;99.90
5834;DHT22;2943;48.012;10.968;2022-08-21T10:08:47;21.50;99.90
5834;DHT22;2943;48.012;10.968;2022-08-21T10:11:16;21.50;99.90
5834;DHT22;2943;48.012;10.968;2022-08-21T10:14:04;21.50;99.90
5834;DHT22;2943;48.012;10.968;2022-08-21T10:16:41;21.50;99.90
5834;DHT22;2943;48.012;10.968;2022-08-21T10:19:22;21.40;99.90
5834;DHT22;2943;48.012;10.968;2022-08-21T10:22:00;21.30;99.90
5834;DHT22;2943;48.012;10.968;2022-08-21T10:24:33;21.30;99.90
5834;DHT22;2943;48.012;10.968;2022-08-21T10:27:14;21.30;99.90
5834;DHT22;2943;48.012;10.968;2022-08-21T10:29:48;21.30;99.90
5834;DHT22;2943;48.012;10.968;2022-08-21T10:32:27;21.30;99.90
5834;DHT22;2943;48.012;10.968;2022-08-21T10:35:05;21.40;99.90
5834;DHT22;2943;48.012;10.968;2022-08-21T10:37:44;21.50;99.90
5834;DHT22;2943;48.012;10.968;2022-08-21T10:40:19;21.50;99.90
5834;DHT22;2943;48.012;10.968;2022-08-21T10:42:56;21.60;99.90
5834;DHT22;2943;48.012;10.968;2022-08-21T10:45:35;21.60;99.90
5834;DHT22;2943;48.012;10.968;2022-08-21T10:48:04;21.70;99.90
5834;DHT22;2943;48.012;10.968;2022-08-21T10:50:40;21.80;99.90
5834;DHT22;2943;48.012;10.968;2022-08-21T10:53:19;21.90;99.90
5834;DHT22;2943;48.012;10.968;2022-08-21T10:55:52;22.10;99.90
5834;DHT22;2943;48.012;10.968;2022-08-21T10:58:25;22.20;99.90
5834;DHT22;2943;48.012;10.968;2022-08-21T11:00:57;22.40;99.90
5834;DHT22;2943;48.012;10.968;2022-08-21T11:03:32;22.60;99.90
5834;DHT22;2943;48.012;10.968;2022-08-21T11:06:06;22.80;99.90
5834;DHT22;2943;48.012;10.968;2022-08-21T11:08:38;22.90;99.90
5834;DHT22;2943;48.012;10.968;2022-08-21T11:11:10;22.90;99.90
5834;DHT22;2943;48.012;10.968;2022-08-21T11:13:41;23.00;99.90
5834;DHT22;2943;48.012;10.968;2022-08-21T11:16:16;23.00;99.90
5834;DHT22;2943;48.012;10.968;2022-08-21T11:18:49;23.00;99.90
5834;DHT22;2943;48.012;10.968;2022-08-21T11:21:37;22.90;99.90
5834;DHT22;2943;48.012;10.968;2022-08-21T11:24:29;22.90;99.90
5834;DHT22;2943;48.012;10.968;2022-08-21T11:54:16;23.30;99.90
5834;DHT22;2943;48.012;10.968;2022-08-21T11:59:18;24.00;99.90
5834;DHT22;2943;48.012;10.968;2022-08-21T12:01:48;24.10;99.90
5834;DHT22;2943;48.012;10.968;2022-08-21T12:04:22;24.20;99.90
5834;DHT22;2943;48.012;10.968;2022-08-21T12:06:49;24.20;99.90
5834;DHT22;2943;48.012;10.968;2022-08-21T12:09:33;24.30;99.90
5834;DHT22;2943;48.012;10.968;2022-08-21T12:12:05;24.40;99.90
5834;DHT22;2943;48.012;10.968;2022-08-21T12:14:37;24.50;99.90
5834;DHT22;2943;48.012;10.968;2022-08-21T12:17:05;24.50;99.90
5834;DHT22;2943;48.012;10.968;2022-08-21T12:19:32;24.60;99.90
5834;DHT22;2943;48.012;10.968;2022-08-21T12:22:08;24.70;99.90
5834;DHT22;2943;48.012;10.968;2022-08-21T12:24:39;24.80;99.90
5834;DHT22;2943;48.012;10.968;2022-08-21T12:27:22;24.80;99.90
5834;DHT22;2943;48.012;10.968;2022-08-21T12:29:52;25.00;99.90
5834;DHT22;2943;48.012;10.968;2022-08-21T12:32:24;25.10;99.90
5834;DHT22;2943;48.012;10.968;2022-08-21T12:34:53;25.20;99.90
5834;DHT22;2943;48.012;10.968;2022-08-21T12:37:27;25.30;99.90
5834;DHT22;2943;48.012;10.968;2022-08-21T12:39:59;25.40;99.90
5834;DHT22;2943;48.012;10.968;2022-08-21T12:42:33;25.50;99.90
5834;DHT22;2943;48.012;10.968;2022-08-21T12:45:07;25.60;99.90
5834;DHT22;2943;48.012;10.968;2022-08-21T12:47:44;25.70;99.90
5834;DHT22;2943;48.012;10.968;2022-08-21T12:50:14;25.60;99.90
5834;DHT22;2943;48.012;10.968;2022-08-21T12:52:48;25.70;99.90
5834;DHT22;2943;48.012;10.968;2022-08-21T12:55:26;25.70;99.90
5834;DHT22;2943;48.012;10.968;2022-08-21T12:57:53;25.70;99.90
5834;DHT22;2943;48.012;10.968;2022-08-21T13:00:22;25.70;99.90
5834;DHT22;2943;48.012;10.968;2022-08-21T13:02:51;25.70;99.90
5834;DHT22;2943;48.012;10.968;2022-08-21T13:05:27;25.70;99.90
5834;DHT22;2943;48.012;10.968;2022-08-21T13:07:55;25.90;99.90
5834;DHT22;2943;48.012;10.968;2022-08-21T13:10:26;25.90;99.90
5834;DHT22;2943;48.012;10.968;2022-08-21T13:12:55;26.00;99.90
5834;DHT22;2943;48.012;10.968;2022-08-21T13:15:26;26.10;99.90
5834;DHT22;2943;48.012;10.968;2022-08-21T13:17:53;26.10;99.90
5834;DHT22;2943;48.012;10.968;2022-08-21T13:20:23;26.20;99.90
5834;DHT22;2943;48.012;10.968;2022-08-21T13:22:51;26.20;99.90
5834;DHT22;2943;48.012;10.968;2022-08-21T13:25:20;26.20;99.90
5834;DHT22;2943;48.012;10.968;2022-08-21T13:27:59;26.30;99.90
5834;DHT22;2943;48.012;10.968;2022-08-21T13:30:27;26.30;99.90
5834;DHT22;2943;48.012;10.968;2022-08-21T13:32:57;26.20;99.90
5834;DHT22;2943;48.012;10.968;2022-08-21T13:35:26;26.10;99.90
5834;DHT22;2943;48.012;10.968;2022-08-21T13:37:54;26.00;99.90
5834;DHT22;2943;48.012;10.968;2022-08-21T13:40:25;25.80;99.90
5834;DHT22;2943;48.012;10.968;2022-08-21T13:42:52;25.70;99.90
5834;DHT22;2943;48.012;10.968;2022-08-21T13:45:26;25.70;99.90
5834;DHT22;2943;48.012;10.968;2022-08-21T13:47:53;25.40;99.90
5834;DHT22;2943;48.012;10.968;2022-08-21T13:50:22;25.30;99.90
5834;DHT22;2943;48.012;10.968;2022-08-21T13:52:59;25.30;99.90
5834;DHT22;2943;48.012;10.968;2022-08-21T13:55:36;25.30;99.90
5834;DHT22;2943;48.012;10.968;2022-08-21T13:58:04;25.30;99.90
5834;DHT22;2943;48.012;10.968;2022-08-21T14:00:35;25.20;99.90
5834;DHT22;2943;48.012;10.968;2022-08-21T14:03:06;25.10;99.90
5834;DHT22;2943;48.012;10.968;2022-08-21T14:05:36;25.00;99.90
5834;DHT22;2943;48.012;10.968;2022-08-21T14:08:06;25.10;99.90
5834;DHT22;2943;48.012;10.968;2022-08-21T14:10:36;25.20;99.90
5834;DHT22;2943;48.012;10.968;2022-08-21T14:13:05;25.20;99.90
5834;DHT22;2943;48.012;10.968;2022-08-21T14:15:35;25.20;99.90
5834;DHT22;2943;48.012;10.968;2022-08-21T14:18:13;25.10;99.90
5834;DHT22;2943;48.012;10.968;2022-08-21T14:20:41;25.00;99.90
5834;DHT22;2943;48.012;10.968;2022-08-21T14:23:08;25.10;99.90
5834;DHT22;2943;48.012;10.968;2022-08-21T14:25:40;25.20;99.90
5834;DHT22;2943;48.012;10.968;2022-08-21T14:28:15;25.30;99.90
5834;DHT22;2943;48.012;10.968;2022-08-21T14:30:47;25.50;99.90
5834;DHT22;2943;48.012;10.968;2022-08-21T14:33:20;25.60;99.90
5834;DHT22;2943;48.012;10.968;2022-08-21T14:35:48;25.80;99.90
5834;DHT22;2943;48.012;10.968;2022-08-21T14:38:17;26.00;99.90
5834;DHT22;2943;48.012;10.968;2022-08-21T14:40:45;26.10;99.90
5834;DHT22;2943;48.012;10.968;2022-08-21T14:43:13;26.30;99.90
5834;DHT22;2943;48.012;10.968;2022-08-21T14:45:40;26.40;99.90
5834;DHT22;2943;48.012;10.968;2022-08-21T14:48:08;26.50;99.90
5834;DHT22;2943;48.012;10.968;2022-08-21T14:50:35;26.60;99.90
5834;DHT22;2943;48.012;10.968;2022-08-21T14:53:02;26.70;99.90
5834;DHT22;2943;48.012;10.968;2022-08-21T14:55:30;26.70;99.10
5834;DHT22;2943;48.012;10.968;2022-08-21T14:58:19;26.70;99.00
5834;DHT22;2943;48.012;10.968;2022-08-21T15:00:48;26.70;99.90
5834;DHT22;2943;48.012;10.968;2022-08-21T15:03:17;26.70;99.20
5834;DHT22;2943;48.012;10.968;2022-08-21T15:05:44;26.80;99.90
5834;DHT22;2943;48.012;10.968;2022-08-21T15:08:11;26.90;99.10
5834;DHT22;2943;48.012;10.968;2022-08-21T15:10:37;27.00;99.70
5834;DHT22;2943;48.012;10.968;2022-08-21T15:13:06;27.10;98.40
5834;DHT22;2943;48.012;10.968;2022-08-21T15:15:38;27.10;98.50
5834;DHT22;2943;48.012;10.968;2022-08-21T15:18:05;27.10;97.90
5834;DHT22;2943;48.012;10.968;2022-08-21T15:20:34;27.00;97.80
5834;DHT22;2943;48.012;10.968;2022-08-21T15:23:01;26.90;98.50
5834;DHT22;2943;48.012;10.968;2022-08-21T15:25:28;26.90;97.60
5834;DHT22;2943;48.012;10.968;2022-08-21T15:27:55;26.80;98.70
5834;DHT22;2943;48.012;10.968;2022-08-21T15:30:22;26.80;98.10
5834;DHT22;2943;48.012;10.968;2022-08-21T15:32:49;26.80;97.90
5834;DHT22;2943;48.012;10.968;2022-08-21T15:35:17;26.80;97.90
5834;DHT22;2943;48.012;10.968;2022-08-21T15:37:45;26.90;97.90
5834;DHT22;2943;48.012;10.968;2022-08-21T15:40:12;27.00;96.90
5834;DHT22;2943;48.012;10.968;2022-08-21T15:42:40;27.10;96.80
5834;DHT22;2943;48.012;10.968;2022-08-21T15:45:09;27.10;96.80
5834;DHT22;2943;48.012;10.968;2022-08-21T15:47:39;27.20;96.50
5834;DHT22;2943;48.012;10.968;2022-08-21T15:50:09;27.30;96.10
5834;DHT22;2943;48.012;10.968;2022-08-21T15:52:37;27.40;95.80
5834;DHT22;2943;48.012;10.968;2022-08-21T15:55:06;27.40;96.70
5834;DHT22;2943;48.012;10.968;2022-08-21T15:57:34;27.50;96.40
5834;DHT22;2943;48.012;10.968;2022-08-21T16:00:05;27.60;95.20
5834;DHT22;2943;48.012;10.968;2022-08-21T16:02:36;27.50;96.10
5834;DHT22;2943;48.012;10.968;2022-08-21T16:05:04;27.40;95.80
5834;DHT22;2943;48.012;10.968;2022-08-21T16:07:31;27.40;96.40
5834;DHT22;2943;48.012;10.968;2022-08-21T16:09:57;27.40;95.40
5834;DHT22;2943;48.012;10.968;2022-08-21T16:12:28;27.30;95.00
5834;DHT22;2943;48.012;10.968;2022-08-21T16:14:58;27.20;94.50
5834;DHT22;2943;48.012;10.968;2022-08-21T16:17:28;27.10;94.10
5834;DHT22;2943;48.012;10.968;2022-08-21T16:19:56;27.10;94.50
5834;DHT22;2943;48.012;10.968;2022-08-21T16:22:23;27.10;94.60
5834;DHT22;2943;48.012;10.968;2022-08-21T16:24:50;27.10;95.00
5834;DHT22;2943;48.012;10.968;2022-08-21T16:27:17;27.20;94.10
5834;DHT22;2943;48.012;10.968;2022-08-21T16:29:46;27.20;94.10
5834;DHT22;2943;48.012;10.968;2022-08-21T16:32:14;27.20;94.10
5834;DHT22;2943;48.012;10.968;2022-08-21T16:34:44;27.30;93.80